Nearby METAR Reports

 

CYOW - Ottawa Intl, Ontario, Canada
Distance from station: N 33km
Updated: Mon, 24-Feb-2020 3:00pm EST
Mostly cloudy
Mostly cloudy
 Wind from SW
Wind: SW 17 km/h
Temperature: 8°C
Wind Chill: 5°C
Dew Point: -2°C
Humidity: 50%
Barometer: 29.85 inHg , 1010.8 hPa
Clouds: Mostly cloudy
Visibility: 24 km
Cloud details: Few Clouds 1219 m
Mostly cloudy 6401 m
2020/02/24 20:00 CYOW 242000Z 22009KT 15SM FEW040 BKN210 08/M02 A2985 RMK SC1CI4 SLP112
CYGK - Kingston Arpt, Ontario, Canada
Distance from station: SW 117km
Updated: Mon, 24-Feb-2020 3:00pm EST
Overcast
Overcast
 Wind from S
Wind: S 17 km/h
Temperature: 3°C
Wind Chill: -1°C
Dew Point: 0°C
Humidity: 81%
Barometer: 29.91 inHg , 1012.9 hPa
Clouds: Overcast
Visibility: 24 km
Cloud details: Overcast 6401 m
2020/02/24 20:00 CYGK 242000Z 18009KT 170V240 15SM OVC210 03/M00 A2991 RMK CI7 SLP132
KMSS - Massena, New York, USA
Distance from station: E 62km
Updated: Mon, 24-Feb-2020 2:53pm EST
Clear
Clear
 Wind from WSW
Wind: WSW 22 km/h, Gust: 37 km/h
Temperature: 8°C
Wind Chill: 4°C
Dew Point: -2°C
Humidity: 50%
Barometer: 29.88 inHg , 1011.9 hPa
Clouds: Clear
Visibility: 16 km
2020/02/24 19:53 KMSS 241953Z AUTO 24012G20KT 10SM CLR 08/M02 A2988 RMK AO2 SLP121 T00831017